Time;durP1;ratioP1;P1;durP2;ratioP2;P2;SDS_P1;SDS_P2;PMS_P1;PMS_P2;Temp;Humidity;BMP_temperature;BMP_pressure;BME280_temperature;BME280_humidity;BME280_pressure;Samples;Min_cycle;Max_cycle;Signal;HPM_P1;HPM_P2
2021/07/11 00:00:14;;;;;;;8.78;7.97;;;;;;;21.92;60.41;100460.69;1682892;84;20161;-82
2021/07/11 00:02:41;;;;;;;20.00;8.63;;;;;;;21.84;60.61;100459.28;1683873;84;21060;-78
2021/07/11 00:05:12;;;;;;;10.75;8.05;;;;;;;21.84;60.71;100463.91;1680644;84;21019;-81
2021/07/11 00:07:40;;;;;;;13.80;9.08;;;;;;;21.86;60.62;100462.55;1683338;84;21063;-80
2021/07/11 00:10:09;;;;;;;12.82;9.78;;;;;;;21.85;60.70;100460.93;1700710;79;21043;-76
2021/07/11 00:12:37;;;;;;;10.43;9.45;;;;;;;21.81;60.80;100462.50;1639204;85;21041;-78
2021/07/11 00:15:11;;;;;;;10.40;9.15;;;;;;;21.77;60.95;100455.45;1631995;87;21026;-82
2021/07/11 00:17:43;;;;;;;10.95;9.98;;;;;;;21.76;61.13;100454.35;1628850;86;21059;-80
2021/07/11 00:20:15;;;;;;;10.00;9.00;;;;;;;21.72;61.22;100455.95;1632962;86;21123;-81
2021/07/11 00:22:43;;;;;;;12.20;10.20;;;;;;;21.73;61.29;100457.02;1645930;86;21685;-82
2021/07/11 00:25:13;;;;;;;11.18;10.08;;;;;;;21.78;61.22;100450.28;1631767;86;21014;-83
2021/07/11 00:27:41;;;;;;;10.70;9.80;;;;;;;21.79;61.29;100451.09;1633357;86;21192;-81
2021/07/11 00:30:10;;;;;;;14.98;9.45;;;;;;;21.74;61.32;100449.18;1634745;86;21047;-81
2021/07/11 00:32:39;;;;;;;12.80;9.60;;;;;;;21.70;61.41;100450.78;1641310;83;21035;-79
2021/07/11 00:35:07;;;;;;;11.00;9.83;;;;;;;21.67;61.47;100445.05;1637901;86;21560;-81
2021/07/11 00:37:33;;;;;;;10.50;9.45;;;;;;;21.64;61.67;100446.38;1634675;86;21048;-81
2021/07/11 00:40:01;;;;;;;9.83;8.48;;;;;;;21.58;61.80;100445.52;1637453;86;21135;-82
2021/07/11 00:42:27;;;;;;;10.60;9.10;;;;;;;21.59;61.80;100447.70;1630206;86;21031;-83
2021/07/11 00:44:55;;;;;;;11.93;9.45;;;;;;;21.61;61.71;100441.48;1637626;86;21115;-81
2021/07/11 00:47:24;;;;;;;11.20;10.03;;;;;;;21.61;61.72;100444.20;1619709;87;21054;-82
2021/07/11 00:49:53;;;;;;;10.18;9.23;;;;;;;21.57;61.79;100442.54;1622660;86;21636;-83
2021/07/11 00:52:19;;;;;;;10.85;9.85;;;;;;;21.54;61.92;100447.11;1637200;86;21099;-82
2021/07/11 00:54:48;;;;;;;13.62;12.35;;;;;;;21.53;62.05;100452.27;1628712;86;21220;-82
2021/07/11 00:57:15;;;;;;;11.75;10.60;;;;;;;21.53;62.15;100446.84;1632934;86;21143;-82
2021/07/11 00:59:44;;;;;;;9.65;8.83;;;;;;;21.60;62.01;100437.67;1625851;86;21609;-82
2021/07/11 01:02:19;;;;;;;10.48;9.45;;;;;;;21.69;61.77;100441.54;1624194;86;21524;-82
2021/07/11 01:05:10;;;;;;;13.08;10.55;;;;;;;21.73;61.61;100441.30;1630685;86;21023;-79
2021/07/11 01:07:49;;;;;;;11.60;10.50;;;;;;;21.69;61.89;100442.34;1627690;86;21051;-82
2021/07/11 01:10:49;;;;;;;10.58;9.65;;;;;;;21.70;61.82;100444.00;1615174;88;21085;-80
2021/07/11 01:13:21;;;;;;;12.30;10.82;;;;;;;21.70;61.79;100445.88;1612552;86;21073;-79
2021/07/11 01:15:53;;;;;;;14.53;13.03;;;;;;;21.62;61.81;100447.72;1629885;85;21083;-76
2021/07/11 01:18:22;;;;;;;16.00;14.43;;;;;;;21.58;62.39;100448.77;1642039;85;20991;-80
2021/07/11 01:21:05;;;;;;;17.17;15.35;;;;;;;21.69;62.41;100451.03;1636100;86;21094;-78
2021/07/11 01:23:51;;;;;;;16.82;12.88;;;;;;;21.77;61.94;100447.31;1622763;86;21170;-82
2021/07/11 01:26:20;;;;;;;18.20;13.98;;;;;;;21.82;61.81;100443.80;1626247;86;21367;-82
2021/07/11 01:28:50;;;;;;;12.43;11.10;;;;;;;21.79;61.82;100444.31;1628116;86;21431;-81
2021/07/11 01:31:20;;;;;;;12.45;10.68;;;;;;;21.78;60.74;100446.22;1640727;86;21020;-82
2021/07/11 01:33:48;;;;;;;9.68;8.88;;;;;;;21.89;59.55;100443.05;1630702;86;21007;-83
2021/07/11 01:36:19;;;;;;;13.25;12.07;;;;;;;22.02;59.02;100446.37;1636956;86;21079;-80
2021/07/11 01:38:50;;;;;;;7.17;6.08;;;;;;;22.15;58.53;100440.47;1627654;86;21105;-81
2021/07/11 01:41:20;;;;;;;14.87;13.35;;;;;;;22.28;56.08;100444.65;1628317;86;21019;-82
2021/07/11 01:43:53;;;;;;;6.33;5.70;;;;;;;22.38;58.69;100446.08;1634240;86;21642;-82
2021/07/11 01:46:22;;;;;;;7.53;6.78;;;;;;;22.33;56.96;100440.06;1625885;86;21015;-82
2021/07/11 01:48:51;;;;;;;14.13;11.80;;;;;;;22.39;57.92;100436.83;1632338;86;21601;-81
2021/07/11 01:51:19;;;;;;;10.18;9.33;;;;;;;22.34;59.06;100443.06;1632489;86;21039;-82
2021/07/11 01:53:51;;;;;;;6.47;5.95;;;;;;;22.20;58.80;100443.77;1601339;87;21020;-82
2021/07/11 01:56:17;;;;;;;7.72;5.80;;;;;;;22.17;58.58;100436.98;1634373;86;21030;-83
2021/07/11 01:58:44;;;;;;;9.75;8.85;;;;;;;22.27;58.23;100442.48;1630754;86;21097;-83
2021/07/11 02:01:15;;;;;;;12.75;10.93;;;;;;;22.32;59.01;100445.23;1630776;85;21061;-82
2021/07/11 02:03:41;;;;;;;13.83;12.60;;;;;;;22.24;59.76;100438.89;1657198;85;21519;-81
2021/07/11 02:06:13;;;;;;;13.78;12.50;;;;;;;22.18;60.03;100447.30;1649221;85;21132;-81
2021/07/11 02:08:42;;;;;;;13.95;12.73;;;;;;;22.05;60.44;100451.28;1651283;85;21085;-82
2021/07/11 02:11:17;;;;;;;14.70;13.38;;;;;;;21.86;61.01;100455.77;1650373;85;21121;-82
2021/07/11 02:13:58;;;;;;;14.95;13.48;;;;;;;21.68;61.47;100449.38;1651316;85;21087;-83
2021/07/11 02:17:15;;;;;;;15.40;11.95;;;;;;;21.51;62.14;100451.72;1660927;85;20998;-81
2021/07/11 02:19:52;;;;;;;12.78;11.68;;;;;;;21.34;62.63;100456.39;1645409;84;21050;-79
2021/07/11 02:22:20;;;;;;;13.88;12.45;;;;;;;21.22;62.89;100453.03;1659018;85;21026;-80
2021/07/11 02:24:49;;;;;;;14.10;12.82;;;;;;;21.15;63.28;100456.78;1656021;85;21152;-81
2021/07/11 02:27:23;;;;;;;15.13;13.70;;;;;;;21.07;63.69;100455.86;1652454;85;21074;-82
2021/07/11 02:29:52;;;;;;;14.03;12.68;;;;;;;21.04;63.92;100461.81;1665055;85;20995;-81
2021/07/11 02:32:16;;;;;;;13.78;12.37;;;;;;;21.13;63.67;100468.38;1660520;80;21043;-81
2021/07/11 02:34:45;;;;;;;12.90;11.78;;;;;;;21.35;63.54;100471.05;1663299;81;21068;-82
2021/07/11 02:37:18;;;;;;;12.03;10.95;;;;;;;21.64;62.71;100472.69;1602407;89;21062;-83
2021/07/11 02:39:49;;;;;;;13.22;12.10;;;;;;;21.97;62.13;100466.16;1666195;85;21031;-81
2021/07/11 02:42:20;;;;;;;11.83;10.63;;;;;;;22.19;60.50;100470.11;1641462;85;20990;-83
2021/07/11 02:44:51;;;;;;;13.25;12.05;;;;;;;22.49;59.30;100467.29;1663468;85;21010;-83
2021/07/11 02:47:27;;;;;;;12.63;11.53;;;;;;;22.86;59.20;100473.15;1658468;85;21019;-81
2021/07/11 02:50:00;;;;;;;8.10;7.40;;;;;;;23.23;58.11;100478.99;1667327;85;20994;-83
2021/07/11 02:52:29;;;;;;;7.62;7.12;;;;;;;23.51;55.26;100474.95;1600567;88;21022;-81
2021/07/11 02:55:25;;;;;;;7.62;6.87;;;;;;;23.80;54.63;100480.67;1657893;84;21522;-81
2021/07/11 02:57:57;;;;;;;10.00;9.10;;;;;;;24.07;53.87;100480.39;1630676;86;21081;-83
2021/07/11 03:00:24;;;;;;;8.65;8.00;;;;;;;24.41;53.30;100480.28;1657561;84;21152;-83
2021/07/11 03:02:52;;;;;;;9.50;8.38;;;;;;;24.66;52.42;100480.23;1654780;85;21015;-83
2021/07/11 03:05:24;;;;;;;10.58;8.93;;;;;;;25.00;51.42;100479.52;1670113;84;21599;-82
2021/07/11 03:07:53;;;;;;;9.08;8.15;;;;;;;25.34;50.47;100477.43;1680753;84;21648;-83
2021/07/11 03:10:19;;;;;;;13.10;8.75;;;;;;;25.63;50.17;100482.12;1663689;84;21015;-83
2021/07/11 03:12:51;;;;;;;9.75;8.95;;;;;;;25.91;50.60;100482.42;1653807;84;21091;-82
2021/07/11 03:15:21;;;;;;;10.78;9.68;;;;;;;26.15;49.72;100479.20;1656847;86;21042;-81
2021/07/11 03:17:51;;;;;;;8.70;8.10;;;;;;;26.42;48.99;100477.26;1667526;84;21068;-84
2021/07/11 03:20:20;;;;;;;16.48;10.00;;;;;;;26.64;48.68;100483.34;1689663;84;20955;-83
2021/07/11 03:22:49;;;;;;;10.48;8.35;;;;;;;26.82;47.74;100476.27;1673322;81;21039;-83
2021/07/11 03:25:15;;;;;;;12.47;8.53;;;;;;;26.96;47.49;100473.88;1664084;83;20971;-77
2021/07/11 03:27:41;;;;;;;9.78;8.83;;;;;;;27.16;47.73;100477.42;1658400;84;20980;-83
2021/07/11 03:30:16;;;;;;;10.25;9.33;;;;;;;27.37;47.44;100478.78;1662903;85;21007;-84
2021/07/11 03:32:52;;;;;;;10.28;9.43;;;;;;;27.62;46.52;100474.00;1659627;85;21118;-82
2021/07/11 03:35:30;;;;;;;8.33;7.53;;;;;;;27.91;45.94;100468.88;1665224;85;21032;-82
2021/07/11 03:37:59;;;;;;;12.47;8.05;;;;;;;28.20;44.96;100458.20;1638345;87;21101;-85
2021/07/11 03:40:29;;;;;;;8.73;7.95;;;;;;;28.41;44.58;100464.91;1663445;85;21055;-85
2021/07/11 03:43:02;;;;;;;8.28;7.60;;;;;;;28.59;44.19;100466.50;1668798;85;21166;-82
2021/07/11 03:45:29;;;;;;;10.53;7.97;;;;;;;28.85;43.48;100465.39;1656875;84;21650;-83
2021/07/11 03:48:06;;;;;;;9.98;7.17;;;;;;;29.11;43.02;100463.69;1653017;85;21051;-83
2021/07/11 03:50:36;;;;;;;7.03;6.33;;;;;;;29.32;42.65;100461.87;1654105;86;21095;-86
2021/07/11 03:53:06;;;;;;;6.45;5.92;;;;;;;29.58;41.09;100460.68;1652483;86;21499;-82
2021/07/11 03:55:35;;;;;;;7.25;6.00;;;;;;;29.82;40.34;100460.37;1655399;85;20999;-79
2021/07/11 03:58:04;;;;;;;7.08;6.37;;;;;;;29.96;39.18;100461.64;1696112;83;21054;-79
2021/07/11 04:00:32;;;;;;;6.00;5.42;;;;;;;30.14;39.15;100461.17;1691600;85;21170;-82
2021/07/11 04:03:03;;;;;;;5.62;5.22;;;;;;;30.36;39.47;100456.16;1691018;85;21070;-81
2021/07/11 04:05:38;;;;;;;6.35;4.85;;;;;;;30.61;38.18;100459.30;1685188;85;21101;-84
2021/07/11 04:08:18;;;;;;;7.30;5.10;;;;;;;30.82;37.21;100461.70;1679569;84;21055;-81
2021/07/11 04:10:44;;;;;;;5.50;5.00;;;;;;;30.95;36.27;100459.97;1688654;85;21054;-79
2021/07/11 04:13:16;;;;;;;6.30;4.83;;;;;;;31.13;36.00;100458.02;1677377;84;21026;-83
2021/07/11 04:15:54;;;;;;;6.80;4.65;;;;;;;31.28;35.63;100460.04;1677979;84;21066;-81
2021/07/11 04:18:23;;;;;;;4.90;4.20;;;;;;;31.44;35.07;100452.91;1687807;85;21353;-81
2021/07/11 04:20:54;;;;;;;4.60;4.12;;;;;;;31.25;35.59;100395.43;1678906;85;21042;-81
2021/07/11 04:23:30;;;;;;;5.95;3.92;;;;;;;31.81;34.92;100454.69;1681675;85;21057;-81
2021/07/11 04:25:57;;;;;;;11.83;4.37;;;;;;;32.02;33.94;100458.94;1693576;80;20988;-78
2021/07/11 04:28:24;;;;;;;4.33;3.92;;;;;;;32.19;33.49;100456.13;1694042;81;21059;-79
2021/07/11 04:30:52;;;;;;;3.27;2.90;;;;;;;32.35;33.49;100450.84;1670484;79;20979;-76
2021/07/11 04:33:18;;;;;;;3.62;2.98;;;;;;;32.46;32.76;100453.23;1692094;79;21050;-80
2021/07/11 04:35:45;;;;;;;3.67;3.35;;;;;;;32.56;31.95;100442.60;1696638;84;21070;-83
2021/07/11 04:38:12;;;;;;;3.65;3.17;;;;;;;32.74;31.56;100446.68;1695105;84;21093;-80
2021/07/11 04:40:39;;;;;;;6.30;3.00;;;;;;;32.82;31.51;100444.41;1693333;84;21077;-82
2021/07/11 04:43:05;;;;;;;3.37;3.17;;;;;;;32.87;31.82;100446.98;1698808;84;21045;-81
2021/07/11 04:45:33;;;;;;;6.00;2.92;;;;;;;32.98;31.63;100448.74;1699048;84;21038;-82
2021/07/11 04:48:00;;;;;;;5.70;2.92;;;;;;;33.01;31.11;100447.28;1699851;84;21649;-82
2021/07/11 04:50:26;;;;;;;3.72;3.02;;;;;;;33.11;31.05;100444.92;1694732;84;20981;-81
2021/07/11 04:52:52;;;;;;;5.17;3.30;;;;;;;33.33;31.09;100447.09;1697976;84;21043;-83
2021/07/11 04:55:18;;;;;;;3.58;2.25;;;;;;;33.48;30.67;100446.45;1696118;84;21109;-81
2021/07/11 04:57:44;;;;;;;3.77;2.77;;;;;;;33.53;30.55;100441.27;1701964;84;21092;-79
2021/07/11 05:00:14;;;;;;;3.50;3.30;;;;;;;33.53;30.30;100440.72;1698477;84;21056;-81
2021/07/11 05:02:44;;;;;;;6.87;4.05;;;;;;;33.52;31.04;100441.85;1683538;84;21622;-84
2021/07/11 05:05:10;;;;;;;4.65;4.22;;;;;;;33.49;31.81;100443.11;1687726;84;21089;-83
2021/07/11 05:07:37;;;;;;;4.47;2.95;;;;;;;33.40;32.27;100445.15;1701869;84;21021;-81
2021/07/11 05:10:08;;;;;;;5.25;3.92;;;;;;;33.22;32.44;100441.77;1695443;84;21564;-81
2021/07/11 05:12:36;;;;;;;6.67;3.90;;;;;;;33.07;32.43;100448.10;1700111;84;21028;-86
2021/07/11 05:15:05;;;;;;;5.05;3.52;;;;;;;33.04;32.25;100440.52;1701743;84;21823;-81
2021/07/11 05:17:32;;;;;;;4.10;3.35;;;;;;;33.07;32.29;100444.54;1696251;84;21038;-83
2021/07/11 05:20:00;;;;;;;3.00;2.80;;;;;;;33.11;31.96;100445.50;1696138;84;21018;-80
2021/07/11 05:22:28;;;;;;;5.65;3.42;;;;;;;33.04;31.78;100439.13;1699268;84;21025;-80
2021/07/11 05:24:58;;;;;;;3.37;3.17;;;;;;;32.86;32.10;100443.17;1698445;84;21115;-78
2021/07/11 05:27:27;;;;;;;4.30;2.92;;;;;;;32.72;32.26;100441.48;1693243;84;21073;-78
2021/07/11 05:29:55;;;;;;;2.65;2.40;;;;;;;32.73;32.25;100438.15;1685082;84;21161;-80
2021/07/11 05:32:21;;;;;;;5.58;3.52;;;;;;;32.65;32.82;100441.20;1706538;84;20989;-79
2021/07/11 05:34:51;;;;;;;2.80;2.60;;;;;;;32.70;32.68;100447.09;1698410;79;20959;-81
2021/07/11 05:37:19;;;;;;;3.52;3.15;;;;;;;32.80;32.29;100448.66;1679562;84;21530;-79
2021/07/11 05:39:46;;;;;;;5.87;2.95;;;;;;;32.79;32.02;100446.45;1691354;84;21177;-81
2021/07/11 05:42:12;;;;;;;3.80;2.30;;;;;;;32.59;31.32;100445.31;1701981;84;21617;-80
2021/07/11 05:44:38;;;;;;;2.30;2.20;;;;;;;32.65;31.37;100448.69;1671643;84;20983;-81
2021/07/11 05:47:05;;;;;;;3.02;2.25;;;;;;;32.85;30.72;100451.20;1696260;84;21095;-83
2021/07/11 05:49:31;;;;;;;4.87;2.40;;;;;;;33.02;30.25;100450.26;1697797;84;20958;-83
2021/07/11 05:51:57;;;;;;;5.12;2.12;;;;;;;33.05;30.41;100444.88;1700855;84;21614;-82
2021/07/11 05:54:26;;;;;;;3.42;1.67;;;;;;;33.16;30.63;100443.92;1701516;84;21061;-83
2021/07/11 05:56:52;;;;;;;4.50;2.33;;;;;;;33.35;30.37;100438.70;1684755;84;20969;-79
2021/07/11 05:59:18;;;;;;;3.50;2.25;;;;;;;33.43;30.18;100450.80;1697088;84;21135;-80
2021/07/11 06:01:44;;;;;;;3.45;2.75;;;;;;;33.45;30.58;100445.74;1699586;84;21467;-81
2021/07/11 06:04:10;;;;;;;4.55;2.25;;;;;;;33.72;30.49;100443.56;1703096;84;21001;-80
2021/07/11 06:06:38;;;;;;;2.20;1.65;;;;;;;34.05;29.66;100445.44;1694608;84;21074;-80
2021/07/11 06:09:04;;;;;;;2.83;1.95;;;;;;;34.39;29.12;100448.91;1696458;84;21506;-82
2021/07/11 06:11:30;;;;;;;3.50;2.65;;;;;;;34.70;28.49;100440.03;1697573;84;21663;-82
2021/07/11 06:13:57;;;;;;;3.27;1.92;;;;;;;35.01;28.10;100432.42;1698400;84;21065;-84
2021/07/11 06:16:24;;;;;;;5.65;2.00;;;;;;;35.23;27.90;100439.99;1702468;84;21024;-82
2021/07/11 06:18:50;;;;;;;2.00;1.67;;;;;;;35.27;27.41;100440.89;1690159;84;20972;-80
2021/07/11 06:21:16;;;;;;;2.67;1.52;;;;;;;35.14;26.99;100437.34;1700285;84;21053;-84
2021/07/11 06:23:42;;;;;;;2.25;1.40;;;;;;;35.19;26.66;100442.66;1692855;84;21070;-81
2021/07/11 06:26:08;;;;;;;1.55;1.40;;;;;;;35.27;26.64;100434.77;1688155;84;21210;-81
2021/07/11 06:28:35;;;;;;;4.00;1.70;;;;;;;35.32;26.74;100437.05;1699625;84;21090;-81
2021/07/11 06:31:04;;;;;;;3.33;1.20;;;;;;;35.24;27.00;100431.89;1701859;82;21618;-81
2021/07/11 06:33:30;;;;;;;1.40;1.40;;;;;;;34.93;27.53;100433.38;1710461;79;21075;-80
2021/07/11 06:35:56;;;;;;;1.65;1.55;;;;;;;34.77;28.42;100432.50;1695170;83;21059;-83
2021/07/11 06:38:22;;;;;;;2.15;1.80;;;;;;;34.84;27.89;100429.95;1702967;84;21007;-83
2021/07/11 06:40:49;;;;;;;3.12;2.37;;;;;;;34.66;28.66;100432.97;1696202;84;21639;-83
2021/07/11 06:43:15;;;;;;;1.55;1.27;;;;;;;34.55;28.55;100433.22;1691668;84;21564;-85
2021/07/11 06:45:42;;;;;;;5.08;2.10;;;;;;;34.58;28.27;100428.36;1697667;84;21007;-83
2021/07/11 06:48:09;;;;;;;3.08;2.62;;;;;;;34.74;28.41;100435.41;1674716;84;21155;-85
2021/07/11 06:50:42;;;;;;;4.53;2.90;;;;;;;34.96;28.85;100439.61;1693614;84;21084;-88
2021/07/11 06:53:10;;;;;;;3.72;2.80;;;;;;;35.09;28.88;100426.50;1695554;84;21102;-91
2021/07/11 06:55:39;;;;;;;2.85;2.65;;;;;;;35.18;28.98;100438.27;1663134;84;21633;-91
2021/07/11 07:00:54;;;;;;;4.80;2.85;;;;;;;35.29;29.04;100431.05;1675728;80;21527;-92
2021/07/11 07:03:21;;;;;;;4.80;2.37;;;;;;;35.25;29.16;100429.36;1668930;83;21102;-92
2021/07/11 07:05:48;;;;;;;4.10;2.30;;;;;;;35.00;30.05;100417.53;1679369;83;21094;-87
2021/07/11 07:08:18;;;;;;;2.72;2.22;;;;;;;34.77;29.79;100424.20;1684057;83;21022;-90
2021/07/11 07:10:53;;;;;;;3.72;2.50;;;;;;;34.67;30.01;100417.98;1658729;85;21037;-89
2021/07/11 07:13:21;;;;;;;2.05;1.87;;;;;;;34.52;30.00;100423.64;1673411;84;21047;-88
2021/07/11 07:15:48;;;;;;;1.80;1.70;;;;;;;34.48;30.26;100428.27;1642584;86;21095;-93
2021/07/11 17:31:14;;;;;;;6.20;1.70;;;;;;;30.47;33.80;100269.11;1710284;79;21115;-81
2021/07/11 17:33:41;;;;;;;5.60;1.75;;;;;;;30.44;33.96;100267.03;1666315;84;21246;-83
2021/07/11 17:36:08;;;;;;;3.58;1.82;;;;;;;30.39;34.10;100276.01;1615755;87;21160;-81
2021/07/11 17:38:37;;;;;;;2.55;2.12;;;;;;;30.32;34.35;100275.65;1588077;87;21021;-81
2021/07/11 17:41:03;;;;;;;2.70;2.10;;;;;;;30.25;34.58;100274.74;1641485;85;21515;-81
2021/07/11 17:43:29;;;;;;;4.22;2.27;;;;;;;30.19;34.70;100270.54;1638133;86;21519;-80
2021/07/11 17:45:56;;;;;;;3.58;2.15;;;;;;;29.92;34.79;100240.84;1623855;86;21148;-81
2021/07/11 17:48:22;;;;;;;3.12;2.83;;;;;;;30.10;34.93;100267.77;1617653;86;21561;-89
2021/07/11 17:51:00;;;;;;;5.17;1.80;;;;;;;30.06;35.12;100284.13;1630018;86;21571;-93
2021/07/11 17:53:42;;;;;;;;;;;;;;;;;;;;;
2021/07/11 17:56:26;;;;;;;;;;;;;;;;;;;;;
2021/07/11 17:59:07;;;;;;;5.42;2.58;;;;;;;29.89;35.45;100296.42;1544060;90;21058;-92
2021/07/11 18:02:08;;;;;;;;;;;;;;;29.82;35.66;100294.16;1566928;85;21129;-96
2021/07/11 18:11:20;;;;;;;;;;;;;;;;;;;;;
2021/07/11 18:17:02;;;;;;;5.28;3.15;;;;;;;29.47;37.29;100301.44;1529816;91;21085;-96
2021/07/11 18:26:03;;;;;;;3.92;3.50;;;;;;;29.28;37.55;100312.08;1689658;80;21142;-87
2021/07/11 18:44:51;;;;;;;4.87;3.35;;;;;;;28.90;38.92;100328.92;1671706;80;21354;-92
2021/07/11 18:47:22;;;;;;;6.90;3.77;;;;;;;28.86;39.23;100332.62;1622167;85;21110;-90
2021/07/11 18:49:48;;;;;;;4.40;3.65;;;;;;;28.82;39.26;100334.34;1693256;83;21177;-90
2021/07/11 18:52:17;;;;;;;4.28;3.75;;;;;;;28.78;39.39;100339.63;1666016;83;21197;-90
2021/07/11 18:54:44;;;;;;;4.40;3.95;;;;;;;28.75;39.59;100341.64;1695075;83;21064;-90
2021/07/11 18:57:20;;;;;;;6.25;4.30;;;;;;;28.71;39.74;100341.45;1649658;84;21090;-89
2021/07/11 19:00:00;;;;;;;;;;;;;;;;;;;;;
2021/07/11 19:02:29;;;;;;;6.80;3.92;;;;;;;28.62;40.12;100338.39;1620501;86;21175;-92
2021/07/11 19:04:58;;;;;;;4.15;3.75;;;;;;;28.58;40.22;100347.79;1572035;87;21228;-91
2021/07/11 19:07:25;;;;;;;18.75;3.72;;;;;;;28.54;40.44;100339.38;1626096;86;21127;-89
2021/07/11 19:09:53;;;;;;;6.28;4.33;;;;;;;28.50;40.59;100345.73;1610449;86;21042;-95
2021/07/11 19:12:31;;;;;;;4.10;3.80;;;;;;;28.47;40.72;100339.52;1604225;87;21098;-91
2021/07/11 19:15:03;;;;;;;6.05;5.37;;;;;;;28.45;40.86;100348.05;1594642;87;21700;-92
2021/07/11 19:17:33;;;;;;;13.20;4.40;;;;;;;28.41;40.92;100350.34;1618373;87;21067;-89
2021/07/11 19:19:59;;;;;;;4.37;4.00;;;;;;;28.34;40.89;100340.59;1609940;87;21611;-89
2021/07/11 19:22:25;;;;;;;3.50;3.20;;;;;;;28.28;40.79;100339.66;1613286;87;21065;-88
2021/07/11 19:24:53;;;;;;;4.08;3.72;;;;;;;28.24;40.88;100341.39;1603727;88;21595;-90
2021/07/11 19:27:20;;;;;;;5.42;4.58;;;;;;;28.21;41.19;100341.43;1565863;86;21051;-89
2021/07/11 19:29:47;;;;;;;5.78;4.00;;;;;;;28.16;41.43;100344.27;1567476;87;21091;-86
2021/07/11 19:32:13;;;;;;;4.20;3.67;;;;;;;28.11;41.69;100341.09;1639424;84;21052;-91
2021/07/11 19:34:41;;;;;;;5.72;4.20;;;;;;;28.08;41.69;100336.78;1590221;85;21058;-89
2021/07/11 19:37:08;;;;;;;3.98;3.77;;;;;;;28.05;41.70;100342.33;1619585;85;21184;-89
2021/07/11 19:39:42;;;;;;;6.30;4.35;;;;;;;28.02;41.85;100336.08;1611216;86;21670;-92
2021/07/11 19:42:12;;;;;;;5.40;3.90;;;;;;;28.00;41.78;100345.16;1593486;86;21134;-88
2021/07/11 19:44:38;;;;;;;5.30;3.30;;;;;;;27.99;42.03;100333.97;1624994;87;21143;-90
2021/07/11 19:47:05;;;;;;;10.32;4.42;;;;;;;27.99;42.11;100335.87;1618660;86;21066;-90
2021/07/11 19:49:32;;;;;;;6.25;3.98;;;;;;;27.97;42.19;100333.44;1630417;86;21604;-90
2021/07/11 19:52:00;;;;;;;5.25;3.77;;;;;;;27.95;42.29;100342.52;1614481;86;21565;-90
2021/07/11 19:54:28;;;;;;;5.22;3.72;;;;;;;27.92;42.26;100337.10;1613662;86;21108;-91
2021/07/11 19:56:54;;;;;;;5.15;4.12;;;;;;;27.90;42.42;100338.53;1621145;86;21142;-88
2021/07/11 19:59:22;;;;;;;5.85;3.90;;;;;;;27.87;42.43;100341.84;1633132;86;21178;-88
2021/07/11 20:01:48;;;;;;;6.50;5.55;;;;;;;27.84;42.28;100342.44;1627590;87;21087;-89
2021/07/11 20:04:23;;;;;;;4.50;4.10;;;;;;;27.82;42.44;100341.93;1621480;86;21067;-90
2021/07/11 20:06:49;;;;;;;5.80;4.72;;;;;;;27.79;42.40;100343.92;1622838;86;21068;-88
2021/07/11 20:09:15;;;;;;;6.65;4.45;;;;;;;27.75;42.67;100340.98;1630712;86;21141;-88
2021/07/11 20:15:50;;;;;;;7.85;4.60;;;;;;;27.64;42.73;100336.25;1610355;86;21093;-88
2021/07/11 20:18:46;;;;;;;6.28;4.47;;;;;;;27.25;42.97;100286.88;1616526;87;21069;-91
2021/07/11 20:21:10;;;;;;;4.62;3.87;;;;;;;27.41;43.07;100333.95;1604203;87;21074;-92
2021/07/11 20:23:37;;;;;;;13.48;4.47;;;;;;;27.32;43.05;100337.12;1625498;86;21037;-88
2021/07/11 20:26:06;;;;;;;4.95;4.08;;;;;;;27.24;42.90;100337.22;1632116;84;21143;-94
2021/07/11 20:28:35;;;;;;;4.53;4.20;;;;;;;27.16;43.14;100335.16;1592613;83;21031;-91
2021/07/11 20:31:02;;;;;;;7.22;3.50;;;;;;;27.11;43.47;100339.36;1614572;84;21115;-91
2021/07/11 20:33:33;;;;;;;6.53;4.42;;;;;;;27.04;43.71;100332.09;1597237;84;20960;-92
2021/07/11 20:36:04;;;;;;;4.62;4.22;;;;;;;26.98;43.76;100333.53;1579775;84;21088;-92
2021/07/11 20:38:32;;;;;;;4.25;3.80;;;;;;;26.95;43.31;100336.05;1584610;85;21335;-92
2021/07/11 20:40:58;;;;;;;8.90;3.50;;;;;;;26.93;42.96;100333.61;1567849;88;21129;-94
2021/07/11 20:43:24;;;;;;;3.95;3.75;;;;;;;26.94;43.00;100333.08;1563001;90;21126;-92
2021/07/11 20:45:50;;;;;;;5.70;3.60;;;;;;;26.94;43.18;100333.88;1575173;86;21089;-92
2021/07/11 20:48:17;;;;;;;4.83;3.70;;;;;;;26.94;43.09;100341.28;1574242;86;21004;-94
2021/07/11 20:50:48;;;;;;;6.47;4.05;;;;;;;26.92;43.07;100338.84;1589134;88;21071;-92
2021/07/11 20:53:14;;;;;;;3.37;3.27;;;;;;;26.91;42.44;100344.03;1569184;90;21660;-92
2021/07/11 20:59:04;;;;;;;;;;;;;;;26.92;42.83;100340.20;1824342;76;23572;-93
2021/07/11 21:01:34;;;;;;;4.08;3.90;;;;;;;26.92;42.67;100349.78;1770190;78;20114;-93
2021/07/11 21:04:00;;;;;;;5.12;4.60;;;;;;;26.85;43.01;100356.17;1762390;77;21060;-92
2021/07/11 21:06:26;;;;;;;6.78;3.98;;;;;;;26.80;43.03;100361.71;1750591;80;22153;-91
2021/07/11 21:08:54;;;;;;;4.70;4.40;;;;;;;26.78;43.09;100350.27;1720611;81;21074;-90
2021/07/11 21:11:22;;;;;;;5.45;4.92;;;;;;;26.76;43.55;100357.95;1767382;78;20990;-90
2021/07/11 21:13:52;;;;;;;5.92;4.62;;;;;;;26.73;43.89;100354.43;1742867;80;20999;-92
2021/07/11 21:16:18;;;;;;;5.25;4.85;;;;;;;26.69;44.03;100354.23;1760929;80;20958;-91
2021/07/11 21:18:49;;;;;;;7.10;4.05;;;;;;;26.64;43.60;100357.59;1761646;80;21084;-90
2021/07/11 21:21:15;;;;;;;6.53;4.95;;;;;;;26.60;43.70;100358.18;1727539;81;20967;-90
2021/07/11 21:23:45;;;;;;;5.45;5.00;;;;;;;26.58;45.31;100356.27;1713109;78;20975;-90
2021/07/11 21:26:11;;;;;;;4.95;4.75;;;;;;;26.54;45.50;100359.34;1694300;80;20993;-89
2021/07/11 21:28:37;;;;;;;9.50;4.95;;;;;;;26.47;44.93;100360.25;1667649;82;21050;-87
2021/07/11 21:31:03;;;;;;;5.00;4.67;;;;;;;26.43;46.00;100348.28;1672644;81;21022;-89
2021/07/11 21:33:29;;;;;;;5.33;4.87;;;;;;;26.39;44.76;100348.59;1699596;82;21051;-90
2021/07/11 21:35:56;;;;;;;6.08;5.37;;;;;;;26.34;44.84;100348.12;1692817;83;21015;-90
2021/07/11 21:38:24;;;;;;;5.75;5.30;;;;;;;26.34;44.74;100346.75;1675903;83;21071;-88
2021/07/11 21:40:50;;;;;;;8.60;5.80;;;;;;;26.33;44.83;100346.48;1696030;83;21559;-91
2021/07/11 21:43:16;;;;;;;5.28;4.92;;;;;;;26.32;46.43;100349.53;1731323;80;21501;-89
2021/07/11 21:45:44;;;;;;;5.12;4.53;;;;;;;26.25;46.72;100346.34;1738326;80;21117;-92
2021/07/11 21:48:11;;;;;;;4.83;4.42;;;;;;;26.15;46.22;100352.19;1737703;79;20999;-90
2021/07/11 21:50:37;;;;;;;4.85;4.42;;;;;;;26.09;46.17;100349.80;1745521;80;21009;-90
2021/07/11 21:53:04;;;;;;;6.42;4.60;;;;;;;26.04;45.41;100346.59;1723118;80;21082;-90
2021/07/11 21:55:30;;;;;;;5.50;4.83;;;;;;;26.00;45.27;100353.74;1718977;80;20979;-90
2021/07/11 21:57:58;;;;;;;5.08;4.60;;;;;;;25.98;45.30;100347.77;1694712;80;21038;-90
2021/07/11 22:00:29;;;;;;;5.03;4.62;;;;;;;25.97;45.15;100343.39;1745956;81;20995;-90
2021/07/11 22:02:58;;;;;;;5.17;4.90;;;;;;;25.98;45.14;100347.77;1721421;80;21065;-89
2021/07/11 22:05:28;;;;;;;4.92;4.35;;;;;;;25.97;45.20;100344.76;1716614;81;21071;-90
2021/07/11 22:07:58;;;;;;;4.67;4.30;;;;;;;25.96;45.20;100345.87;1736732;81;20962;-90
2021/07/11 22:10:28;;;;;;;5.20;4.90;;;;;;;25.94;45.24;100338.53;1746238;81;21523;-89
2021/07/11 22:12:54;;;;;;;8.63;6.35;;;;;;;25.94;45.10;100340.70;1729301;80;21082;-89
2021/07/11 22:15:21;;;;;;;4.58;4.33;;;;;;;25.93;46.98;100344.52;1735093;81;21014;-87
2021/07/11 22:17:47;;;;;;;6.12;5.62;;;;;;;25.84;45.79;100337.52;1742049;81;21032;-87
2021/07/11 22:20:15;;;;;;;5.58;5.08;;;;;;;25.81;47.28;100335.35;1715226;82;20991;-88
2021/07/11 22:22:46;;;;;;;11.53;7.17;;;;;;;25.72;47.49;100337.09;1710874;77;21024;-89
2021/07/11 22:25:13;;;;;;;14.10;6.97;;;;;;;25.64;48.25;100338.54;1744773;78;21200;-88
2021/07/11 22:27:41;;;;;;;8.23;5.65;;;;;;;25.53;48.75;100335.66;1726915;81;21239;-89
2021/07/11 22:30:09;;;;;;;9.68;6.58;;;;;;;25.41;49.25;100334.69;1737675;80;20977;-88
2021/07/11 22:32:36;;;;;;;9.25;6.55;;;;;;;25.31;49.69;100334.77;1735680;81;21118;-88